Time,TemperatureF,DewpointF,PressureIn,WindDirection,WindDirectionDegrees,WindSpeedMPH,WindSpeedGustMPH,Humidity,HourlyPrecipIn,Conditions,Clouds,dailyrainin,SoftwareType,DateUTC
2013-10-12 00:14:00,66.0,63.0,30.01,NW,317,0.0,1.0,89,0.00,,,0.00,,2013-10-12 04:14:00,
2013-10-12 00:24:00,66.0,63.0,30.01,NW,304,1.0,3.0,91,0.00,,,0.00,,2013-10-12 04:24:00,
2013-10-12 00:44:00,66.0,63.0,30.01,NNW,337,0.0,4.0,90,0.00,,,0.00,,2013-10-12 04:44:00,
2013-10-12 00:54:00,66.0,63.0,30.01,NE,42,0.0,3.0,91,0.00,,,0.00,,2013-10-12 04:54:00,
2013-10-12 01:13:00,66.0,64.0,30.01,ENE,66,2.0,6.0,93,0.00,,,0.00,,2013-10-12 05:13:00,
2013-10-12 01:23:00,66.0,64.0,30.01,East,82,1.0,3.0,92,0.00,,,0.00,,2013-10-12 05:23:00,
2013-10-12 01:43:00,65.0,63.0,30.01,ENE,59,0.0,2.0,93,0.00,,,0.00,,2013-10-12 05:43:00,
2013-10-12 01:52:00,64.0,62.0,30.01,NE,38,1.0,2.0,94,0.00,,,0.00,,2013-10-12 05:52:00,
2013-10-12 02:12:00,64.0,63.0,30.00,NE,38,0.0,2.0,95,0.00,,,0.00,,2013-10-12 06:12:00,
2013-10-12 02:22:00,64.0,63.0,30.00,NE,38,0.0,1.0,95,0.00,,,0.00,,2013-10-12 06:22:00,
2013-10-12 02:42:00,63.0,62.0,30.01,NE,38,0.0,0.0,96,0.00,,,0.00,,2013-10-12 06:42:00,
2013-10-12 02:52:00,63.0,62.0,30.00,NE,38,0.0,0.0,96,0.00,,,0.00,,2013-10-12 06:52:00,
2013-10-12 03:12:00,63.0,62.0,29.99,NE,38,0.0,1.0,96,0.00,,,0.00,,2013-10-12 07:12:00,
2013-10-12 03:22:00,62.0,61.0,29.99,NE,38,0.0,0.0,96,0.00,,,0.00,,2013-10-12 07:22:00,
2013-10-12 03:42:00,62.0,61.0,29.99,NE,42,0.0,3.0,97,0.00,,,0.00,,2013-10-12 07:42:00,
2013-10-12 03:52:00,62.0,61.0,29.99,NE,42,0.0,0.0,97,0.00,,,0.00,,2013-10-12 07:52:00,
2013-10-12 04:12:00,62.0,61.0,29.99,NE,42,0.0,0.0,97,0.00,,,0.00,,2013-10-12 08:12:00,
2013-10-12 04:22:00,62.0,61.0,29.99,NE,42,0.0,0.0,97,0.00,,,0.00,,2013-10-12 08:22:00,
2013-10-12 04:42:00,62.0,61.0,29.99,NE,42,0.0,2.0,97,0.00,,,0.00,,2013-10-12 08:42:00,
2013-10-12 04:52:00,62.0,61.0,29.99,NE,42,0.0,0.0,97,0.00,,,0.00,,2013-10-12 08:52:00,
2013-10-12 05:11:00,62.0,61.0,29.99,NE,42,0.0,0.0,98,0.00,,,0.00,,2013-10-12 09:11:00,
2013-10-12 05:22:00,61.0,60.0,29.99,NE,42,0.0,0.0,97,0.00,,,0.00,,2013-10-12 09:22:00,
2013-10-12 05:43:00,61.0,60.0,30.00,NE,42,0.0,1.0,97,0.00,,,0.00,,2013-10-12 09:43:00,
2013-10-12 05:54:00,61.0,60.0,30.00,North,9,0.0,2.0,98,0.00,,,0.00,,2013-10-12 09:54:00,
2013-10-12 06:12:00,62.0,61.0,30.00,North,360,0.0,2.0,98,0.00,,,0.00,,2013-10-12 10:12:00,
2013-10-12 06:23:00,61.0,60.0,30.01,North,360,0.0,2.0,98,0.00,,,0.00,,2013-10-12 10:23:00,
2013-10-12 06:42:00,61.0,60.0,30.01,North,360,0.0,2.0,98,0.00,,,0.00,,2013-10-12 10:42:00,
2013-10-12 06:52:00,61.0,60.0,30.01,North,360,0.0,2.0,98,0.00,,,0.00,,2013-10-12 10:52:00,
2013-10-12 07:12:00,61.0,60.0,30.02,North,360,0.0,1.0,98,0.00,,,0.00,,2013-10-12 11:12:00,
2013-10-12 07:22:00,61.0,60.0,30.02,North,360,0.0,2.0,98,0.00,,,0.00,,2013-10-12 11:22:00,
2013-10-12 07:42:00,61.0,60.0,30.03,North,360,0.0,0.0,98,0.00,,,0.00,,2013-10-12 11:42:00,
2013-10-12 07:52:00,61.0,60.0,30.03,North,360,0.0,0.0,98,0.00,,,0.00,,2013-10-12 11:52:00,
2013-10-12 08:11:00,61.0,60.0,30.03,North,360,0.0,0.0,98,0.00,,,0.00,,2013-10-12 12:11:00,
2013-10-12 08:22:00,62.0,61.0,30.03,North,360,0.0,0.0,98,0.00,,,0.00,,2013-10-12 12:22:00,
2013-10-12 08:42:00,64.0,63.0,30.04,North,360,0.0,1.0,98,0.00,,,0.00,,2013-10-12 12:42:00,
2013-10-12 08:52:00,65.0,64.0,30.04,North,360,0.0,2.0,98,0.00,,,0.00,,2013-10-12 12:52:00,
2013-10-12 09:11:00,66.0,65.0,30.04,North,355,1.0,2.0,98,0.00,,,0.00,,2013-10-12 13:11:00,
2013-10-12 09:22:00,67.0,66.0,30.05,NW,313,1.0,3.0,98,0.00,,,0.00,,2013-10-12 13:22:00,
2013-10-12 09:42:00,69.0,68.0,30.05,North,355,1.0,5.0,98,0.00,,,0.00,,2013-10-12 13:42:00,
2013-10-12 09:52:00,71.0,69.0,30.05,NNW,331,0.0,3.0,92,0.00,,,0.00,,2013-10-12 13:52:00,
2013-10-12 10:12:00,73.0,69.0,30.06,NW,313,1.0,4.0,87,0.00,,,0.00,,2013-10-12 14:12:00,
2013-10-12 10:21:00,75.0,68.0,30.06,NNE,18,1.0,5.0,80,0.00,,,0.00,,2013-10-12 14:21:00,
2013-10-12 10:42:00,77.0,70.0,30.06,NNE,23,1.0,4.0,78,0.00,,,0.00,,2013-10-12 14:42:00,
2013-10-12 10:52:00,77.0,68.0,30.06,NNW,334,1.0,5.0,74,0.00,,,0.00,,2013-10-12 14:52:00,
2013-10-12 11:11:00,79.0,69.0,30.06,NNW,337,0.0,4.0,72,0.00,,,0.00,,2013-10-12 15:11:00,
2013-10-12 11:22:00,79.0,69.0,30.06,West,271,2.0,5.0,71,0.00,,,0.00,,2013-10-12 15:22:00,
2013-10-12 11:43:00,80.0,68.0,30.06,West,273,1.0,7.0,68,0.00,,,0.00,,2013-10-12 15:43:00,
2013-10-12 11:53:00,81.0,69.0,30.06,NNW,327,1.0,8.0,66,0.00,,,0.00,,2013-10-12 15:53:00,
2013-10-12 12:13:00,81.0,68.0,30.06,WSW,247,3.0,6.0,64,0.00,,,0.00,,2013-10-12 16:13:00,
2013-10-12 12:23:00,82.0,71.0,30.05,WNW,292,2.0,7.0,69,0.00,,,0.00,,2013-10-12 16:23:00,
2013-10-12 12:43:00,83.0,68.0,30.05,NW,313,1.0,3.0,61,0.00,,,0.00,,2013-10-12 16:43:00,
2013-10-12 12:53:00,84.0,68.0,30.04,NNW,344,2.0,8.0,58,0.00,,,0.00,,2013-10-12 16:53:00,
2013-10-12 13:13:00,83.0,68.0,30.04,NE,44,3.0,7.0,60,0.00,,,0.00,,2013-10-12 17:13:00,
2013-10-12 13:23:00,84.0,69.0,30.03,WNW,291,2.0,7.0,60,0.00,,,0.00,,2013-10-12 17:23:00,
2013-10-12 13:42:00,83.0,66.0,30.03,South,180,2.0,5.0,57,0.00,,,0.00,,2013-10-12 17:42:00,
2013-10-12 13:53:00,85.0,68.0,30.02,NW,315,3.0,7.0,57,0.00,,,0.00,,2013-10-12 17:53:00,
2013-10-12 14:12:00,85.0,68.0,30.01,NNE,32,3.0,7.0,56,0.00,,,0.00,,2013-10-12 18:12:00,
2013-10-12 14:22:00,84.0,64.0,30.01,NW,304,4.0,9.0,52,0.00,,,0.00,,2013-10-12 18:22:00,
2013-10-12 14:42:00,85.0,68.0,30.00,NW,319,4.0,9.0,56,0.00,,,0.00,,2013-10-12 18:42:00,
2013-10-12 14:52:00,86.0,65.0,30.00,WNW,302,4.0,10.0,50,0.00,,,0.00,,2013-10-12 18:52:00,
2013-10-12 15:11:00,86.0,65.0,30.00,NE,45,4.0,10.0,50,0.00,,,0.00,,2013-10-12 19:11:00,
2013-10-12 15:22:00,86.0,66.0,29.99,North,360,2.0,8.0,51,0.00,,,0.00,,2013-10-12 19:22:00,
2013-10-12 15:42:00,85.0,66.0,29.99,NNE,13,3.0,7.0,53,0.00,,,0.00,,2013-10-12 19:42:00,
2013-10-12 15:52:00,85.0,64.0,29.99,WNW,286,3.0,9.0,49,0.00,,,0.00,,2013-10-12 19:52:00,
2013-10-12 16:12:00,85.0,64.0,29.99,NNW,327,0.0,7.0,50,0.00,,,0.00,,2013-10-12 20:12:00,
2013-10-12 16:22:00,86.0,67.0,29.98,WSW,240,1.0,6.0,53,0.00,,,0.00,,2013-10-12 20:22:00,
2013-10-12 16:42:00,86.0,65.0,29.98,NNW,336,1.0,8.0,49,0.00,,,0.00,,2013-10-12 20:42:00,
2013-10-12 16:52:00,85.0,65.0,29.99,WNW,303,2.0,8.0,51,0.00,,,0.00,,2013-10-12 20:52:00,
2013-10-12 17:11:00,84.0,65.0,29.98,NNW,344,0.0,6.0,53,0.00,,,0.00,,2013-10-12 21:11:00,
2013-10-12 17:22:00,84.0,63.0,29.98,WNW,294,2.0,5.0,50,0.00,,,0.00,,2013-10-12 21:22:00,
2013-10-12 17:43:00,84.0,65.0,29.98,NE,46,1.0,6.0,53,0.00,,,0.00,,2013-10-12 21:43:00,
2013-10-12 17:54:00,82.0,64.0,29.98,NW,315,0.0,6.0,55,0.00,,,0.00,,2013-10-12 21:54:00,
2013-10-12 18:13:00,82.0,64.0,29.99,North,355,0.0,3.0,55,0.00,,,0.00,,2013-10-12 22:13:00,
2013-10-12 18:24:00,81.0,65.0,29.99,NW,304,0.0,5.0,58,0.00,,,0.00,,2013-10-12 22:24:00,
2013-10-12 18:54:00,77.0,66.0,30.00,NW,311,0.0,3.0,68,0.00,,,0.00,,2013-10-12 22:54:00,
2013-10-12 20:52:00,71.0,64.0,30.02,NW,308,0.0,2.0,79,0.00,,,0.00,,2013-10-13 00:52:00,
2013-10-12 21:12:00,71.0,65.0,30.03,NW,304,1.0,2.0,80,0.00,,,0.00,,2013-10-13 01:12:00,
2013-10-12 21:22:00,71.0,65.0,30.03,NW,321,1.0,4.0,81,0.00,,,0.00,,2013-10-13 01:22:00,
2013-10-12 21:42:00,71.0,65.0,30.04,NW,321,2.0,5.0,81,0.00,,,0.00,,2013-10-13 01:42:00,
2013-10-12 21:52:00,71.0,65.0,30.04,NW,309,1.0,4.0,81,0.00,,,0.00,,2013-10-13 01:52:00,
2013-10-12 22:12:00,71.0,64.0,30.05,WNW,302,0.0,5.0,78,0.00,,,0.00,,2013-10-13 02:12:00,
2013-10-12 22:22:00,69.0,63.0,30.05,WNW,294,0.0,3.0,82,0.00,,,0.00,,2013-10-13 02:22:00,
2013-10-12 22:42:00,69.0,63.0,30.05,NW,315,0.0,4.0,81,0.00,,,0.00,,2013-10-13 02:42:00,
2013-10-12 22:52:00,68.0,63.0,30.06,NW,313,0.0,1.0,83,0.00,,,0.00,,2013-10-13 02:52:00,
2013-10-12 23:12:00,67.0,63.0,30.06,NW,313,0.0,1.0,86,0.00,,,0.00,,2013-10-13 03:12:00,
2013-10-12 23:23:00,67.0,63.0,30.06,NW,315,0.0,3.0,88,0.00,,,0.00,,2013-10-13 03:23:00,
2013-10-12 23:45:00,66.0,63.0,30.06,NNW,347,0.0,2.0,89,0.00,,,0.00,,2013-10-13 03:45:00,
2013-10-12 23:54:00,66.0,63.0,30.07,ENE,65,0.0,2.0,89,0.00,,,0.00,,2013-10-13 03:54:00,